METAR Data
IDs: Format: Raw Decoded Include TAF

Data at: 1519 UTC 21 Sep 2018

KDQH 211455Z AUTO 05004KT 10SM BKN020 BKN028 28/23 A3018 RMK AO2
KDQH 211435Z AUTO 07005KT 10SM SCT016 28/23 A3018 RMK AO2
KDQH 211416Z AUTO 08004KT 10SM CLR 28/23 A3018 RMK AO2
KDQH 211355Z AUTO 09004KT 7SM SCT009 27/23 A3018 RMK AO2
KDQH 211335Z AUTO 00000KT 10SM CLR 26/23 A3018 RMK AO2
KDQH 211315Z AUTO 00000KT 10SM CLR 25/23 A3018 RMK AO2
KDQH 211257Z AUTO 10004KT 10SM CLR 24/23 A3018 RMK AO2
KDQH 211235Z AUTO 06004KT 10SM CLR 23/22 A3018 RMK AO2
KDQH 211215Z AUTO 05003KT 10SM CLR 23/22 A3017 RMK AO2
KDQH 211156Z AUTO 00000KT 10SM CLR 22/22 A3017 RMK AO2
KDQH 211135Z AUTO 04003KT 10SM CLR 22/22 A3016 RMK AO2
KDQH 211115Z AUTO 00000KT 10SM CLR 22/22 A3015 RMK AO2
KDQH 211055Z AUTO 04003KT 10SM CLR 22/21 A3015 RMK AO2
KDQH 211036Z AUTO 00000KT 10SM CLR 22/22 A3015 RMK AO2
KDQH 211016Z AUTO 00000KT 10SM CLR 22/21 A3014 RMK AO2
KDQH 210957Z AUTO 06004KT 10SM CLR 22/22 A3014 RMK AO2 LTG DSNT SW
KDQH 210935Z AUTO 07004KT 10SM CLR 22/22 A3014 RMK AO2
KDQH 210915Z AUTO 06003KT 10SM CLR 22/22 A3013 RMK AO2
KDQH 210856Z AUTO 05003KT 10SM CLR 22/21 A3013 RMK AO2
KDQH 210836Z AUTO 06003KT 10SM CLR 22/22 A3012 RMK AO2
KDQH 210815Z AUTO 00000KT 10SM CLR 22/22 A3012 RMK AO2
KDQH 210755Z AUTO 00000KT 10SM CLR 22/22 A3013 RMK AO2
KDQH 210736Z AUTO 07003KT 10SM CLR 23/22 A3013 RMK AO2
KDQH 210715Z AUTO 07003KT 10SM CLR 23/22 A3013 RMK AO2
KDQH 210655Z AUTO 08003KT 10SM CLR 23/22 A3013 RMK AO2
KDQH 210635Z AUTO 00000KT 10SM CLR 23/22 A3013 RMK AO2 LTG DSNT SW
KDQH 210615Z AUTO 00000KT 10SM CLR 23/22 A3013 RMK AO2
KDQH 210555Z AUTO 09003KT 10SM CLR 23/22 A3014 RMK AO2
KDQH 210535Z AUTO 10003KT 10SM CLR 23/22 A3014 RMK AO2
KDQH 210515Z AUTO 00000KT 10SM CLR 23/22 A3015 RMK AO2
KDQH 210455Z AUTO 00000KT 10SM CLR 24/22 A3015 RMK AO2
KDQH 210435Z AUTO 00000KT 10SM CLR 24/22 A3015 RMK AO2
KDQH 210416Z AUTO 00000KT 10SM CLR 24/22 A3015 RMK AO2
KDQH 210355Z AUTO 00000KT 10SM CLR 24/22 A3015 RMK AO2
KDQH 210337Z AUTO 00000KT 10SM CLR 25/21 A3015 RMK AO2
KDQH 210315Z AUTO 11003KT 10SM CLR 25/21 A3015 RMK AO2
KDQH 210255Z AUTO 12003KT 10SM CLR 26/21 A3015 RMK AO2
KDQH 210236Z AUTO 11003KT 10SM CLR 26/21 A3014 RMK AO2
KDQH 210215Z AUTO 12005KT 10SM CLR 26/21 A3014 RMK AO2
KDQH 210155Z AUTO 12005KT 10SM CLR 26/21 A3013 RMK AO2
KDQH 210135Z AUTO 11005KT 10SM CLR 27/21 A3013 RMK AO2
KDQH 210115Z AUTO 12004KT 10SM CLR 27/21 A3012 RMK AO2
KDQH 210055Z AUTO 11005KT 10SM CLR 27/21 A3010 RMK AO2
KDQH 210036Z AUTO 12005KT 10SM CLR 28/21 A3010 RMK AO2
KDQH 210015Z AUTO 11005KT 10SM CLR 28/21 A3009 RMK AO2
KDQH 202356Z AUTO 12005KT 10SM CLR 28/21 A3008 RMK AO2
KDQH 202337Z AUTO 12004KT 10SM CLR 29/21 A3007 RMK AO2
KDQH 202315Z AUTO 10007KT 10SM CLR 30/19 A3007 RMK AO2
KDQH 202255Z AUTO 11003KT 10SM CLR 31/17 A3006 RMK AO2
KDQH 202237Z AUTO 10005KT 10SM CLR 32/16 A3006 RMK AO2
KDQH 202215Z AUTO 09007KT 10SM CLR 32/16 A3006 RMK AO2
KDQH 202156Z AUTO 08008KT 10SM CLR 33/17 A3006 RMK AO2
KDQH 202135Z AUTO 08007KT 10SM CLR 33/17 A3005 RMK AO2
KDQH 202115Z AUTO 08006KT 10SM SCT065 33/17 A3005 RMK AO2
KDQH 202055Z AUTO 09005KT 10SM SCT065 33/17 A3005 RMK AO2
KDQH 202035Z AUTO 05007KT 10SM SCT065 34/17 A3006 RMK AO2
KDQH 202015Z AUTO 10006KT 10SM CLR 34/17 A3006 RMK AO2
KDQH 201959Z AUTO 10006KT 10SM CLR 33/17 A3006 RMK AO2
KDQH 201938Z AUTO 10003KT 10SM SCT060 33/18 A3007 RMK AO2
KDQH 201919Z AUTO 11005KT 10SM SCT060 34/18 A3007 RMK AO2
KDQH 201855Z AUTO 06006KT 10SM CLR 33/18 A3007 RMK AO2
KDQH 201835Z AUTO 07006KT 10SM CLR 33/18 A3008 RMK AO2
KDQH 201819Z AUTO 08008KT 10SM SCT055 33/19 A3009 RMK AO2
KDQH 201757Z AUTO 11003KT 10SM CLR 33/18 A3010 RMK AO2
KDQH 201739Z AUTO 10004KT 10SM SCT050 33/19 A3010 RMK AO2
KDQH 201655Z AUTO 12005KT 10SM SCT050 32/19 A3012 RMK AO2
KDQH 201637Z AUTO 11003KT 10SM SCT048 32/20 A3012 RMK AO2
KDQH 201457Z AUTO 12004KT 10SM CLR 31/21 A3014 RMK AO2
KDQH 201435Z AUTO 08005KT 10SM CLR 30/22 A3013 RMK AO2
KDQH 201417Z AUTO 09004KT 10SM CLR 29/22 A3013 RMK AO2
KDQH 201337Z AUTO 06004KT 10SM CLR 27/22 A3012 RMK AO2
KDQH 201318Z AUTO 05003KT 10SM CLR 27/22 A3011 RMK AO2
KDQH 201255Z AUTO 04003KT 10SM CLR 26/23 A3011 RMK AO2
KDQH 201235Z AUTO 00000KT 10SM CLR 24/23 A3010 RMK AO2
KDQH 201217Z AUTO 00000KT 10SM CLR 24/23 A3009 RMK AO2
KDQH 201157Z AUTO 00000KT 10SM CLR 23/22 A3008 RMK AO2
KDQH 201055Z AUTO 00000KT 10SM CLR 22/22 A3006 RMK AO2
KDQH 200955Z AUTO 00000KT 7SM CLR 22/22 A3003 RMK AO2
KDQH 200937Z AUTO 00000KT 10SM CLR 22/22 A3003 RMK AO2
KDQH 200915Z AUTO 00000KT 10SM CLR 23/22 A3002 RMK AO2
KDQH 200855Z AUTO 00000KT 10SM CLR 23/22 A3002 RMK AO2
KDQH 200815Z AUTO 00000KT 10SM CLR 23/22 A3002 RMK AO2
KDQH 200757Z AUTO 00000KT 10SM CLR 22/22 A3002 RMK AO2
KDQH 200736Z AUTO 00000KT 10SM CLR 23/23 A3003 RMK AO2
KDQH 200715Z AUTO 00000KT 10SM CLR 23/23 A3003 RMK AO2
KDQH 200655Z AUTO 00000KT 10SM CLR 23/23 A3003 RMK AO2
KDQH 200635Z AUTO 00000KT 10SM CLR 23/23 A3003 RMK AO2
KDQH 200615Z AUTO 00000KT 10SM CLR 23/23 A3003 RMK AO2
KDQH 200555Z AUTO 00000KT 10SM CLR 23/23 A3003 RMK AO2
KDQH 200535Z AUTO 00000KT 10SM CLR 23/23 A3003 RMK AO2
KDQH 200415Z AUTO 00000KT 10SM CLR 24/23 A3003 RMK AO2
KDQH 200355Z AUTO 00000KT 10SM CLR 24/23 A3003 RMK AO2
KDQH 200335Z AUTO 00000KT 10SM CLR 25/23 A3003 RMK AO2